createdAt,value
2018-08-11T00:00:10.449Z,0.20
2018-08-11T00:03:12.744Z,0.20
2018-08-11T00:06:15.004Z,0.30
2018-08-11T00:09:17.392Z,0.30
2018-08-11T00:12:19.694Z,0.30
2018-08-11T00:15:22.020Z,0.23
2018-08-11T00:18:24.319Z,0.20
2018-08-11T00:21:26.570Z,0.20
2018-08-11T00:24:29.234Z,0.30
2018-08-11T00:27:31.772Z,0.30
2018-08-11T00:30:34.037Z,0.30
2018-08-11T00:33:36.276Z,0.40
2018-08-11T00:36:38.586Z,0.30
2018-08-11T00:39:40.817Z,0.20
2018-08-11T00:42:44.433Z,0.30
2018-08-11T00:45:46.777Z,0.30
2018-08-11T00:48:50.134Z,0.30
2018-08-11T00:51:52.341Z,0.50
2018-08-11T00:54:54.572Z,0.30
2018-08-11T00:57:56.949Z,0.30
2018-08-11T01:00:59.275Z,0.30
2018-08-11T01:04:01.619Z,0.40
2018-08-11T01:07:04.044Z,0.30
2018-08-11T01:10:06.949Z,0.37
2018-08-11T01:13:09.181Z,0.33
2018-08-11T01:16:11.545Z,0.40
2018-08-11T01:19:13.913Z,0.30
2018-08-11T01:22:16.180Z,0.30
2018-08-11T01:25:18.505Z,0.30
2018-08-11T01:28:20.811Z,0.20
2018-08-11T01:31:23.220Z,0.30
2018-08-11T01:34:25.498Z,0.20
2018-08-11T01:37:27.937Z,0.30
2018-08-11T01:40:30.475Z,0.20
2018-08-11T01:43:32.798Z,0.20
2018-08-11T01:46:35.130Z,0.43
2018-08-11T01:49:37.317Z,0.30
2018-08-11T01:52:41.408Z,0.30
2018-08-11T01:55:43.629Z,0.30
2018-08-11T01:58:45.939Z,0.30
2018-08-11T02:01:48.228Z,0.23
2018-08-11T02:04:50.640Z,0.30
2018-08-11T02:07:52.981Z,0.30
2018-08-11T02:10:55.277Z,0.30
2018-08-11T02:13:57.628Z,0.33
2018-08-11T02:16:59.904Z,0.37
2018-08-11T02:20:02.131Z,0.20
2018-08-11T02:23:04.362Z,0.30
2018-08-11T02:26:06.624Z,0.30
2018-08-11T02:29:08.891Z,0.30
2018-08-11T02:32:11.106Z,0.30
2018-08-11T02:35:13.799Z,0.33
2018-08-11T02:38:16.053Z,0.50
2018-08-11T02:41:18.329Z,0.20
2018-08-11T02:44:20.760Z,0.20
2018-08-11T02:47:22.984Z,0.40
2018-08-11T02:50:25.193Z,0.30
2018-08-11T02:53:27.468Z,0.30
2018-08-11T02:56:29.907Z,0.40
2018-08-11T02:59:32.162Z,0.30
2018-08-11T03:02:34.820Z,0.30
2018-08-11T03:05:37.035Z,0.40
2018-08-11T03:08:39.243Z,0.30
2018-08-11T03:11:41.548Z,0.60
2018-08-11T03:14:43.747Z,0.20
2018-08-11T03:17:46.123Z,0.40
2018-08-11T03:20:48.420Z,0.30
2018-08-11T03:23:50.616Z,0.20
2018-08-11T03:26:53.478Z,0.33
2018-08-11T03:29:55.716Z,0.30
2018-08-11T03:32:57.988Z,0.30
2018-08-11T03:36:00.466Z,0.20
2018-08-11T03:39:03.059Z,0.50
2018-08-11T03:49:36.872Z,0.30
2018-08-11T03:52:40.122Z,0.37
2018-08-11T03:55:42.399Z,0.33
2018-08-11T03:58:44.621Z,0.23
2018-08-11T04:01:46.888Z,0.37
2018-08-11T04:04:49.955Z,0.30
2018-08-11T04:07:52.306Z,0.30
2018-08-11T04:10:54.482Z,0.30
2018-08-11T04:13:56.673Z,0.30
2018-08-11T04:16:58.940Z,0.40
2018-08-11T04:20:01.111Z,0.30
2018-08-11T04:23:03.420Z,0.20
2018-08-11T04:26:05.609Z,0.30
2018-08-11T04:29:08.401Z,0.40
2018-08-11T04:32:10.606Z,0.30
2018-08-11T04:35:12.926Z,0.27
2018-08-11T04:38:15.225Z,0.33
2018-08-11T04:41:17.423Z,0.30
2018-08-11T04:44:19.733Z,0.30
2018-08-11T04:47:22.004Z,0.30
2018-08-11T04:50:24.336Z,0.30
2018-08-11T04:53:26.506Z,0.30
2018-08-11T04:56:28.672Z,0.30
2018-08-11T04:59:30.946Z,0.40
2018-08-11T05:02:33.108Z,0.30
2018-08-11T05:05:35.324Z,0.50
2018-08-11T05:08:37.600Z,0.40
2018-08-11T05:11:39.885Z,0.40
2018-08-11T05:14:42.223Z,0.30
2018-08-11T05:17:44.532Z,0.50
2018-08-11T05:20:46.808Z,0.60
2018-08-11T05:23:49.106Z,0.40
2018-08-11T05:26:51.329Z,0.40
2018-08-11T05:29:53.680Z,0.20
2018-08-11T05:32:55.905Z,1.07
2018-08-11T05:35:58.402Z,0.60
2018-08-11T05:39:00.716Z,0.50
2018-08-11T05:42:03.040Z,0.30
2018-08-11T05:45:05.280Z,0.50
2018-08-11T05:48:07.566Z,0.43
2018-08-11T05:51:09.822Z,0.40
2018-08-11T05:54:12.028Z,0.40
2018-08-11T05:57:14.284Z,0.37
2018-08-11T06:00:16.610Z,0.40
2018-08-11T06:03:19.053Z,0.50
2018-08-11T06:06:22.612Z,0.40
2018-08-11T06:09:24.904Z,0.40
2018-08-11T06:12:27.101Z,0.40
2018-08-11T06:15:29.375Z,0.40
2018-08-11T06:18:31.947Z,0.40
2018-08-11T06:21:34.546Z,0.40
2018-08-11T06:24:36.780Z,0.60
2018-08-11T06:27:39.452Z,0.50
2018-08-11T06:30:41.755Z,0.30
2018-08-11T06:33:44.175Z,0.40
2018-08-11T06:36:46.408Z,0.67
2018-08-11T06:39:48.616Z,0.60
2018-08-11T06:42:50.955Z,0.50
2018-08-11T06:45:53.182Z,0.50
2018-08-11T06:48:56.967Z,0.43
2018-08-11T06:51:59.237Z,0.37
2018-08-11T06:55:01.551Z,0.40
2018-08-11T06:58:03.734Z,0.40
2018-08-11T07:01:05.947Z,0.50
2018-08-11T07:04:08.183Z,0.40
2018-08-11T07:07:10.417Z,0.80
2018-08-11T07:10:12.641Z,0.40
2018-08-11T07:13:14.942Z,0.40
2018-08-11T07:16:17.260Z,0.30
2018-08-11T07:19:19.472Z,0.40
2018-08-11T07:22:21.755Z,0.40
2018-08-11T07:25:24.054Z,0.23
2018-08-11T07:28:26.828Z,0.40
2018-08-11T07:31:29.069Z,0.40
2018-08-11T07:34:31.428Z,0.30
2018-08-11T07:37:33.784Z,0.33
2018-08-11T07:40:36.126Z,0.30
2018-08-11T07:43:38.421Z,0.40
2018-08-11T07:46:40.665Z,0.20
2018-08-11T07:49:42.950Z,0.30
2018-08-11T07:52:45.196Z,0.40
2018-08-11T07:55:47.485Z,0.40
2018-08-11T07:58:49.741Z,0.40
2018-08-11T08:01:52.049Z,0.80
2018-08-11T08:04:55.545Z,0.50
2018-08-11T08:07:57.825Z,0.37
2018-08-11T08:11:00.166Z,0.30
2018-08-11T08:14:02.535Z,0.33
2018-08-11T08:17:05.023Z,0.60
2018-08-11T08:20:07.322Z,1.17
2018-08-11T08:23:09.532Z,0.40
2018-08-11T08:26:11.842Z,0.30
2018-08-11T08:29:14.203Z,0.30
2018-08-11T08:32:16.473Z,0.50
2018-08-11T08:35:18.675Z,0.30
2018-08-11T08:38:20.868Z,0.30
2018-08-11T08:41:23.094Z,0.30
2018-08-11T08:44:25.331Z,0.40
2018-08-11T08:47:28.579Z,0.40
2018-08-11T08:50:30.800Z,0.40
2018-08-11T08:53:33.064Z,0.30
2018-08-11T08:56:35.331Z,0.40
2018-08-11T08:59:37.614Z,0.30
2018-08-11T09:02:39.975Z,0.40
2018-08-11T09:05:42.256Z,0.30
2018-08-11T09:08:44.699Z,0.40
2018-08-11T09:11:59.305Z,0.40
2018-08-11T09:15:01.640Z,0.27
2018-08-11T09:18:04.419Z,0.20
2018-08-11T09:21:07.909Z,0.43
2018-08-11T09:24:10.604Z,0.30
2018-08-11T09:27:13.064Z,0.30
2018-08-11T09:30:15.598Z,0.27
2018-08-11T09:33:17.864Z,0.40
2018-08-11T09:36:20.142Z,0.30
2018-08-11T09:39:22.424Z,0.30
2018-08-11T09:42:24.761Z,0.30
2018-08-11T09:45:27.004Z,0.30
2018-08-11T09:48:29.309Z,0.20
2018-08-11T09:51:31.631Z,0.30
2018-08-11T09:54:33.908Z,0.20
2018-08-11T09:57:36.404Z,0.23
2018-08-11T10:00:44.324Z,0.20
2018-08-11T10:03:46.554Z,0.30
2018-08-11T10:06:48.881Z,0.30
2018-08-11T10:09:51.090Z,0.37
2018-08-11T10:12:53.398Z,0.30
2018-08-11T10:15:55.756Z,0.30
2018-08-11T10:18:58.044Z,0.30
2018-08-11T10:22:00.345Z,0.20
2018-08-11T10:25:02.644Z,0.30
2018-08-11T10:28:04.956Z,0.30
2018-08-11T10:31:07.216Z,0.30
2018-08-11T10:34:09.468Z,0.20
2018-08-11T10:37:11.689Z,0.47
2018-08-11T10:40:15.615Z,0.40
2018-08-11T10:43:23.175Z,0.20
2018-08-11T10:46:25.413Z,0.20
2018-08-11T10:49:27.614Z,0.33
2018-08-11T10:52:29.892Z,0.30
2018-08-11T10:55:32.267Z,0.40
2018-08-11T10:58:34.673Z,0.50
2018-08-11T11:01:37.064Z,0.20
2018-08-11T11:04:40.597Z,0.40
2018-08-11T11:07:42.857Z,0.27
2018-08-11T11:10:45.156Z,0.20
2018-08-11T11:13:47.413Z,0.40
2018-08-11T11:16:49.725Z,0.30
2018-08-11T11:19:51.985Z,0.43
2018-08-11T11:22:54.228Z,0.33
2018-08-11T11:25:56.568Z,0.20
2018-08-11T11:28:59.728Z,0.50
2018-08-11T11:32:02.244Z,0.30
2018-08-11T11:35:04.983Z,0.53
2018-08-11T11:38:07.267Z,0.40
2018-08-11T11:41:10.243Z,0.30
2018-08-11T11:44:12.464Z,0.30
2018-08-11T11:47:15.914Z,0.20
2018-08-11T11:50:18.142Z,0.40
2018-08-11T11:53:20.472Z,0.47
2018-08-11T11:56:22.823Z,0.20
2018-08-11T11:59:25.074Z,0.47
2018-08-11T12:02:27.394Z,0.30
2018-08-11T12:05:29.883Z,0.23
2018-08-11T12:08:32.231Z,0.30
2018-08-11T12:11:35.114Z,0.30
2018-08-11T12:14:37.374Z,0.30
2018-08-11T12:17:39.576Z,0.27
2018-08-11T12:20:41.813Z,0.30
2018-08-11T12:23:44.126Z,0.30
2018-08-11T12:26:46.384Z,0.30
2018-08-11T12:29:48.632Z,0.30
2018-08-11T12:32:51.832Z,0.30
2018-08-11T12:35:54.060Z,0.30
2018-08-11T12:38:56.340Z,0.40
2018-08-11T12:41:58.611Z,0.20
2018-08-11T12:45:00.869Z,0.53
2018-08-11T12:48:03.122Z,0.30
2018-08-11T12:51:05.401Z,0.30
2018-08-11T12:54:07.771Z,0.30
2018-08-11T12:57:10.921Z,0.20
2018-08-11T13:00:13.234Z,0.20
2018-08-11T13:03:15.690Z,0.53
2018-08-11T13:06:18.037Z,0.30
2018-08-11T13:09:20.344Z,0.20
2018-08-11T13:12:23.284Z,0.20
2018-08-11T13:15:26.661Z,0.30
2018-08-11T13:18:28.857Z,0.30
2018-08-11T13:21:31.079Z,0.20
2018-08-11T13:24:33.444Z,0.20
2018-08-11T13:27:35.690Z,0.20
2018-08-11T13:30:37.897Z,0.30
2018-08-11T13:33:40.199Z,0.20
2018-08-11T13:36:42.537Z,0.20
2018-08-11T13:39:47.072Z,0.30
2018-08-11T13:42:49.385Z,0.23
2018-08-11T13:45:51.674Z,0.20
2018-08-11T13:48:53.976Z,0.53
2018-08-11T13:51:56.197Z,0.30
2018-08-11T13:54:58.431Z,0.20
2018-08-11T13:58:01.405Z,0.23
2018-08-11T14:01:03.655Z,0.30
2018-08-11T14:04:06.012Z,0.30
2018-08-11T14:07:08.243Z,0.20
2018-08-11T14:10:11.076Z,0.47
2018-08-11T14:13:13.331Z,0.20
2018-08-11T14:16:15.769Z,0.30
2018-08-11T14:19:18.097Z,0.20
2018-08-11T14:22:20.362Z,0.50
2018-08-11T14:25:22.938Z,0.30
2018-08-11T14:28:25.201Z,0.20
2018-08-11T14:31:27.592Z,0.20
2018-08-11T14:34:29.852Z,0.30
2018-08-11T14:37:32.102Z,0.20
2018-08-11T14:40:34.355Z,0.30
2018-08-11T14:43:36.668Z,0.30
2018-08-11T14:46:39.401Z,0.20
2018-08-11T14:49:41.663Z,0.30
2018-08-11T14:52:43.942Z,0.20
2018-08-11T14:55:46.201Z,0.50
2018-08-11T14:58:48.416Z,0.50
2018-08-11T15:01:50.677Z,0.30
2018-08-11T15:04:53.150Z,0.30
2018-08-11T15:07:55.412Z,0.20
2018-08-11T15:10:57.648Z,0.30
2018-08-11T15:13:59.879Z,0.50
2018-08-11T15:17:02.286Z,0.30
2018-08-11T15:20:05.838Z,0.87
2018-08-11T15:23:08.049Z,0.30
2018-08-11T15:26:10.394Z,0.20
2018-08-11T15:29:12.657Z,0.30
2018-08-11T15:32:15.030Z,0.30
2018-08-11T15:35:18.012Z,0.30
2018-08-11T15:38:20.220Z,0.23
2018-08-11T15:41:22.407Z,0.20
2018-08-11T15:44:24.641Z,0.20
2018-08-11T15:47:27.848Z,0.30
2018-08-11T15:50:30.128Z,0.23
2018-08-11T15:53:32.397Z,0.30
2018-08-11T15:56:34.708Z,0.30
2018-08-11T15:59:37.798Z,0.20
2018-08-11T16:02:40.039Z,0.20
2018-08-11T16:05:42.292Z,0.20
2018-08-11T16:08:44.605Z,0.20
2018-08-11T16:11:46.927Z,0.30
2018-08-11T16:14:49.359Z,0.40
2018-08-11T16:17:51.596Z,0.73
2018-08-11T16:20:53.928Z,0.20
2018-08-11T16:23:56.224Z,0.40
2018-08-11T16:26:58.487Z,0.20
2018-08-11T16:30:00.893Z,0.40
2018-08-11T16:33:03.328Z,0.30
2018-08-11T16:36:05.849Z,0.30
2018-08-11T16:39:08.733Z,0.23
2018-08-11T16:42:10.968Z,0.20
2018-08-11T16:45:13.179Z,0.20
2018-08-11T16:48:15.460Z,0.30
2018-08-11T16:51:17.795Z,0.20
2018-08-11T16:54:20.087Z,0.20
2018-08-11T16:57:22.872Z,0.20
2018-08-11T17:00:25.168Z,0.20
2018-08-11T17:03:27.430Z,0.20
2018-08-11T17:06:30.684Z,0.20
2018-08-11T17:09:33.061Z,0.30
2018-08-11T17:12:37.531Z,0.20
2018-08-11T17:15:39.809Z,0.30
2018-08-11T17:18:42.014Z,0.20
2018-08-11T17:21:44.298Z,0.30
2018-08-11T17:24:46.572Z,0.20
2018-08-11T17:27:52.988Z,0.30
2018-08-11T17:30:55.314Z,0.30
2018-08-11T17:34:00.673Z,0.40
2018-08-11T17:37:02.894Z,0.47
2018-08-11T17:40:05.797Z,0.30
2018-08-11T17:43:08.124Z,0.40
2018-08-11T17:46:10.395Z,0.30
2018-08-11T17:49:13.236Z,0.40
2018-08-11T17:52:19.511Z,0.40
2018-08-11T17:55:21.756Z,0.60
2018-08-11T17:58:23.944Z,0.70
2018-08-11T18:01:26.798Z,0.50
2018-08-11T18:04:28.981Z,0.50
2018-08-11T18:07:31.320Z,0.40
2018-08-11T18:10:33.849Z,0.30
2018-08-11T18:13:36.636Z,0.40
2018-08-11T18:16:41.388Z,0.50
2018-08-11T18:19:43.625Z,0.60
2018-08-11T18:22:46.006Z,0.70
2018-08-11T18:25:48.298Z,0.67
2018-08-11T18:28:50.565Z,0.90
2018-08-11T18:31:52.918Z,1.30
2018-08-11T18:34:55.190Z,1.27
2018-08-11T18:37:57.485Z,0.60
2018-08-11T18:40:59.694Z,0.80
2018-08-11T18:44:02.000Z,0.50
2018-08-11T18:47:04.413Z,0.40
2018-08-11T18:50:06.639Z,0.60
2018-08-11T18:53:09.075Z,1.10
2018-08-11T18:56:11.346Z,0.50
2018-08-11T18:59:13.551Z,0.77
2018-08-11T19:02:15.812Z,0.90
2018-08-11T19:05:18.088Z,1.30
2018-08-11T19:08:20.389Z,0.80
2018-08-11T19:11:22.710Z,0.77
2018-08-11T19:14:25.071Z,0.70
2018-08-11T19:17:27.413Z,0.60
2018-08-11T19:20:29.778Z,0.30
2018-08-11T19:23:32.532Z,0.50
2018-08-11T19:26:37.410Z,0.50
2018-08-11T19:29:40.215Z,0.53
2018-08-11T19:32:42.649Z,1.10
2018-08-11T19:35:44.819Z,0.47
2018-08-11T19:38:47.525Z,0.73
2018-08-11T19:41:53.490Z,0.43
2018-08-11T19:44:55.809Z,0.50
2018-08-11T19:48:02.710Z,0.60
2018-08-11T19:51:05.202Z,0.60
2018-08-11T19:54:11.442Z,0.50
2018-08-11T19:57:17.270Z,0.70
2018-08-11T20:00:19.965Z,0.50
2018-08-11T20:03:22.244Z,0.60
2018-08-11T20:06:24.479Z,0.70
2018-08-11T20:09:26.806Z,0.53
2018-08-11T20:12:29.154Z,0.50
2018-08-11T20:15:31.625Z,0.50
2018-08-11T20:18:34.555Z,0.83
2018-08-11T20:21:37.769Z,0.60
2018-08-11T20:24:40.102Z,0.80
2018-08-11T20:27:42.428Z,0.50
2018-08-11T20:30:44.765Z,1.07
2018-08-11T20:33:47.034Z,0.60
2018-08-11T20:36:53.822Z,0.40
2018-08-11T20:47:27.881Z,0.40
2018-08-11T20:50:30.219Z,0.53
2018-08-11T20:53:32.489Z,1.17
2018-08-11T20:56:34.807Z,0.60
2018-08-11T20:59:37.077Z,0.50
2018-08-11T21:02:39.306Z,0.30
2018-08-11T21:05:41.635Z,0.53
2018-08-11T21:08:44.260Z,0.40
2018-08-11T21:11:46.500Z,0.50
2018-08-11T21:14:48.764Z,0.40
2018-08-11T21:17:50.935Z,0.90
2018-08-11T21:20:53.200Z,0.40
2018-08-11T21:23:55.612Z,0.60
2018-08-11T21:26:57.783Z,0.60
2018-08-11T21:30:00.014Z,0.40
2018-08-11T21:33:02.285Z,0.47
2018-08-11T21:36:04.753Z,0.80
2018-08-11T21:39:09.360Z,0.67
2018-08-11T21:42:11.654Z,0.60
2018-08-11T21:45:13.852Z,0.80
2018-08-11T21:48:16.347Z,0.90
2018-08-11T21:51:18.643Z,0.60
2018-08-11T21:54:20.793Z,0.57
2018-08-11T21:57:22.949Z,0.80
2018-08-11T22:00:34.018Z,0.63
2018-08-11T22:03:36.294Z,0.90
2018-08-11T22:06:38.568Z,1.27
2018-08-11T22:09:40.756Z,1.20
2018-08-11T22:12:43.106Z,0.93
2018-08-11T22:15:45.437Z,0.77
2018-08-11T22:18:47.805Z,0.80
2018-08-11T22:21:50.261Z,0.87
2018-08-11T22:24:52.531Z,0.70
2018-08-11T22:27:54.832Z,0.83
2018-08-11T22:30:57.114Z,0.60
2018-08-11T22:33:59.319Z,1.00
2018-08-11T22:37:01.710Z,0.80
2018-08-11T22:40:05.038Z,0.67
2018-08-11T22:43:07.244Z,0.83
2018-08-11T22:46:09.590Z,0.90
2018-08-11T22:49:11.873Z,0.70
2018-08-11T22:52:14.252Z,1.13
2018-08-11T22:55:16.624Z,1.00
2018-08-11T22:58:18.880Z,0.80
2018-08-11T23:01:21.121Z,1.20
2018-08-11T23:04:23.373Z,0.70
2018-08-11T23:07:25.663Z,1.00
2018-08-11T23:10:27.939Z,0.70
2018-08-11T23:13:30.218Z,0.80
2018-08-11T23:16:32.474Z,0.70
2018-08-11T23:20:37.855Z,0.77
2018-08-11T23:23:40.084Z,0.87
2018-08-11T23:26:43.108Z,0.90
2018-08-11T23:29:45.353Z,0.83
2018-08-11T23:32:47.645Z,0.77
2018-08-11T23:35:49.974Z,0.80
2018-08-11T23:38:52.345Z,0.60
2018-08-11T23:41:54.699Z,0.80
2018-08-11T23:44:57.284Z,1.10
2018-08-11T23:47:59.512Z,0.80
2018-08-11T23:51:01.867Z,1.10
2018-08-11T23:54:04.107Z,1.20
2018-08-11T23:57:06.553Z,1.93
